Time;durP1;ratioP1;P1;durP2;ratioP2;P2;SDS_P1;SDS_P2;PMS_P1;PMS_P2;Temp;Humidity;BMP_temperature;BMP_pressure;BME280_temperature;BME280_humidity;BME280_pressure;Samples;Min_cycle;Max_cycle;Signal;HPM_P1;HPM_P2
2023/03/03 00:01:07;;;;;;;2.58;2.47;;;;;;;3.96;100.00;62401.50;5030375;28;20277;-77
2023/03/03 00:03:34;;;;;;;3.65;3.35;;;;;;;3.94;100.00;62403.94;5030517;28;20476;-79
2023/03/03 00:06:03;;;;;;;5.13;3.70;;;;;;;3.97;100.00;62407.53;5021961;28;20234;-80
2023/03/03 00:08:31;;;;;;;4.07;3.83;;;;;;;3.98;100.00;62400.50;5031861;28;20206;-79
2023/03/03 00:10:59;;;;;;;4.00;3.70;;;;;;;3.98;100.00;62405.53;5030496;28;20199;-80
2023/03/03 00:13:28;;;;;;;5.00;3.50;;;;;;;3.88;100.00;62400.81;5026961;28;20266;-78
2023/03/03 00:16:10;;;;;;;4.68;4.28;;;;;;;3.75;100.00;62379.38;5011300;28;20219;-78
2023/03/03 00:18:42;;;;;;;4.75;4.30;;;;;;;3.50;100.00;62356.69;5010235;28;20217;-79
2023/03/03 00:21:24;;;;;;;4.25;3.75;;;;;;;3.33;100.00;62334.19;5013848;28;20235;-78
2023/03/03 00:23:54;;;;;;;6.68;4.07;;;;;;;3.39;100.00;62345.38;5022168;28;20213;-79
2023/03/03 00:26:23;;;;;;;4.20;3.78;;;;;;;3.35;100.00;62344.31;5030673;28;20237;-79
2023/03/03 00:28:53;;;;;;;4.43;4.13;;;;;;;3.23;100.00;62331.44;5028539;28;20249;-78
2023/03/03 00:31:22;;;;;;;5.13;4.63;;;;;;;3.35;100.00;62341.78;5027160;28;20261;-79
2023/03/03 00:33:53;;;;;;;5.18;4.30;;;;;;;3.37;100.00;62345.84;5031137;28;20210;-78
2023/03/03 00:36:36;;;;;;;4.13;3.83;;;;;;;3.35;100.00;62344.31;5030309;28;20317;-79
2023/03/03 00:39:22;;;;;;;6.80;4.78;;;;;;;3.34;100.00;62340.75;5030117;28;20241;-79
2023/03/03 00:41:49;;;;;;;4.25;3.88;;;;;;;3.28;100.00;62336.59;5026324;28;20219;-80
2023/03/03 00:44:42;;;;;;;5.18;4.68;;;;;;;3.31;100.00;62337.66;5028715;28;20249;-80
2023/03/03 00:47:25;;;;;;;5.65;4.75;;;;;;;3.26;100.00;62332.03;5018602;28;20241;-79
2023/03/03 00:49:52;;;;;;;6.97;4.53;;;;;;;3.47;100.00;62356.63;5026254;28;20206;-79
2023/03/03 00:52:20;;;;;;;5.57;3.88;;;;;;;3.47;100.00;62354.13;5029997;28;20261;-79
2023/03/03 00:54:48;;;;;;;4.15;3.75;;;;;;;3.47;100.00;62359.16;5028837;28;20219;-79
2023/03/03 00:57:15;;;;;;;4.50;3.53;;;;;;;3.65;100.00;62374.63;5030066;28;20218;-79
2023/03/03 00:59:42;;;;;;;3.42;3.13;;;;;;;3.62;100.00;62374.06;5018455;28;20215;-80
2023/03/03 01:02:09;;;;;;;3.50;3.20;;;;;;;3.71;100.00;62378.28;5010452;28;20265;-79
2023/03/03 01:04:36;;;;;;;3.63;3.33;;;;;;;3.59;100.00;62362.94;5022354;28;20199;-80
2023/03/03 01:07:03;;;;;;;3.60;3.30;;;;;;;3.41;100.00;62347.44;5030755;28;20249;-79
2023/03/03 01:09:30;;;;;;;4.65;4.03;;;;;;;3.39;100.00;62348.41;5014513;28;20492;-80
2023/03/03 01:11:58;;;;;;;4.15;3.75;;;;;;;3.42;100.00;62348.97;5010417;28;20219;-80
2023/03/03 01:14:25;;;;;;;3.75;3.40;;;;;;;3.40;100.00;62351.97;5029947;28;20194;-80
2023/03/03 01:16:52;;;;;;;4.30;3.58;;;;;;;3.32;100.00;62341.22;5026578;28;20238;-78
2023/03/03 01:19:19;;;;;;;3.17;2.97;;;;;;;3.35;100.00;62339.28;5028525;28;20222;-78
2023/03/03 01:21:46;;;;;;;3.60;3.35;;;;;;;3.34;100.00;62342.75;5027344;28;20449;-79
2023/03/03 01:24:13;;;;;;;4.00;3.60;;;;;;;3.28;100.00;62337.09;5030871;28;20199;-80
2023/03/03 01:26:40;;;;;;;5.43;4.47;;;;;;;3.34;100.00;62335.22;5025723;28;20238;-80
2023/03/03 01:29:08;;;;;;;4.03;3.72;;;;;;;3.46;100.00;62355.09;5029239;28;20257;-79
2023/03/03 01:31:35;;;;;;;4.95;4.55;;;;;;;3.56;100.00;62367.91;5030026;28;20226;-79
2023/03/03 01:34:02;;;;;;;4.82;4.00;;;;;;;3.60;100.00;62368.97;5027527;28;20215;-78
2023/03/03 01:36:30;;;;;;;4.45;3.53;;;;;;;3.69;100.00;62378.25;5024566;28;20222;-79
2023/03/03 01:38:57;;;;;;;4.13;3.72;;;;;;;3.67;100.00;62373.66;5031020;28;20202;-79
2023/03/03 01:41:29;;;;;;;4.03;3.72;;;;;;;3.68;100.00;62372.69;5027848;28;20273;-80
2023/03/03 01:43:56;;;;;;;5.20;3.10;;;;;;;3.73;100.00;62382.84;5027110;28;20225;-79
2023/03/03 01:46:45;;;;;;;3.55;3.25;;;;;;;3.78;100.00;62379.94;5027094;28;20231;-79
2023/03/03 01:49:15;;;;;;;4.40;3.65;;;;;;;3.60;100.00;62366.47;5029910;28;20233;-79
2023/03/03 01:51:48;;;;;;;4.10;3.80;;;;;;;3.65;100.00;62377.16;5031039;28;20221;-80
2023/03/03 01:54:21;;;;;;;3.50;3.25;;;;;;;3.64;100.00;62373.09;5024434;28;20238;-79
2023/03/03 01:56:50;;;;;;;3.53;3.13;;;;;;;3.64;100.00;62371.09;5028235;28;20307;-79
2023/03/03 01:59:21;;;;;;;3.50;3.20;;;;;;;3.65;100.00;62374.63;5029485;28;20199;-78
2023/03/03 02:01:50;;;;;;;4.53;3.88;;;;;;;3.81;100.00;62390.56;5024247;28;20227;-78
2023/03/03 02:04:18;;;;;;;5.38;4.65;;;;;;;3.72;100.00;62381.31;5025638;28;20198;-79
2023/03/03 02:06:50;;;;;;;5.15;4.72;;;;;;;3.74;100.00;62380.84;5028632;28;20234;-79
2023/03/03 02:09:25;;;;;;;4.97;4.57;;;;;;;3.66;100.00;62375.66;5028394;28;20206;-78
2023/03/03 02:11:55;;;;;;;5.20;4.20;;;;;;;3.83;100.00;62395.16;5024133;28;20218;-78
2023/03/03 02:14:24;;;;;;;5.70;5.13;;;;;;;3.93;100.00;62400.41;5029074;28;20194;-79
2023/03/03 02:16:52;;;;;;;5.22;4.72;;;;;;;4.00;100.00;62405.59;5029517;28;20539;-78
2023/03/03 02:19:28;;;;;;;12.02;5.03;;;;;;;4.08;100.00;62418.88;5029697;28;20223;-77
2023/03/03 02:21:55;;;;;;;5.60;4.30;;;;;;;4.09;100.00;62419.88;5026993;28;20218;-78
2023/03/03 02:24:28;;;;;;;5.18;4.68;;;;;;;4.08;100.00;62418.34;5027552;28;20202;-79
2023/03/03 02:26:56;;;;;;;6.55;5.35;;;;;;;3.98;100.00;62411.09;5022832;28;20498;-79
2023/03/03 02:29:23;;;;;;;6.95;4.90;;;;;;;4.05;100.00;62413.28;5023459;28;20282;-79
2023/03/03 02:31:51;;;;;;;6.28;5.20;;;;;;;4.14;100.00;62422.00;5027040;28;20223;-80
2023/03/03 02:34:17;;;;;;;6.78;4.95;;;;;;;4.15;100.00;62421.03;5029230;28;20207;-79
2023/03/03 02:36:44;;;;;;;6.63;5.32;;;;;;;4.21;100.00;62434.75;5029669;28;20265;-79
2023/03/03 02:39:17;;;;;;;8.27;5.05;;;;;;;4.17;100.00;62425.09;5024697;28;20213;-78
2023/03/03 02:41:50;;;;;;;5.50;5.00;;;;;;;4.03;100.00;62418.25;5012124;28;20223;-78
2023/03/03 02:44:19;;;;;;;5.22;4.70;;;;;;;3.95;100.00;62402.97;5006273;28;20427;-78
2023/03/03 02:46:48;;;;;;;6.10;4.60;;;;;;;3.66;100.00;62377.69;5022293;28;20245;-79
2023/03/03 02:49:17;;;;;;;5.85;5.20;;;;;;;3.66;100.00;62372.63;5026438;28;20207;-79
2023/03/03 02:51:44;;;;;;;5.38;4.75;;;;;;;3.62;100.00;62371.56;5028560;28;20222;-79
2023/03/03 02:54:14;;;;;;;6.05;4.85;;;;;;;3.55;100.00;62364.84;5028234;28;20203;-78
2023/03/03 02:56:41;;;;;;;5.85;4.63;;;;;;;3.56;100.00;62362.84;5024054;28;20217;-79
2023/03/03 02:59:08;;;;;;;4.93;4.53;;;;;;;3.58;100.00;62367.44;5026656;28;20507;-80
2023/03/03 03:01:37;;;;;;;6.75;5.03;;;;;;;3.50;100.00;62359.22;5027461;28;20222;-79
2023/03/03 03:04:07;;;;;;;6.20;4.97;;;;;;;3.49;100.00;62360.69;5027373;28;20218;-79
2023/03/03 03:06:34;;;;;;;6.47;4.97;;;;;;;3.49;100.00;62356.19;5021628;28;20234;-79
2023/03/03 03:09:02;;;;;;;5.60;5.00;;;;;;;3.39;100.00;62347.91;5026104;28;20210;-78
2023/03/03 03:11:29;;;;;;;5.30;4.72;;;;;;;3.35;100.00;62343.78;5028651;28;20248;-78
2023/03/03 03:13:56;;;;;;;7.25;5.82;;;;;;;3.38;100.00;62344.88;5025449;28;20214;-78
2023/03/03 03:16:22;;;;;;;7.00;5.55;;;;;;;3.40;100.00;62348.91;5024344;28;20227;-80
2023/03/03 03:18:51;;;;;;;9.20;5.72;;;;;;;3.44;100.00;62353.56;5023920;28;20222;-79
2023/03/03 03:21:18;;;;;;;6.78;5.25;;;;;;;3.41;100.00;62344.94;5028151;28;20276;-78
2023/03/03 03:23:45;;;;;;;6.03;5.47;;;;;;;3.35;100.00;62338.75;5022791;28;20199;-79
2023/03/03 03:26:12;;;;;;;7.82;6.18;;;;;;;3.27;100.00;62333.56;5026298;28;20230;-80
2023/03/03 03:28:39;;;;;;;7.13;6.13;;;;;;;3.29;100.00;62335.09;5023843;28;20237;-78
2023/03/03 03:31:08;;;;;;;7.07;6.28;;;;;;;3.32;100.00;62338.19;5026533;28;20286;-80
2023/03/03 03:33:35;;;;;;;6.80;5.70;;;;;;;3.29;100.00;62335.63;5020609;28;20199;-79
2023/03/03 03:36:05;;;;;;;7.32;6.57;;;;;;;3.25;100.00;62333.50;5008774;28;20206;-79
2023/03/03 03:38:33;;;;;;;8.77;6.18;;;;;;;3.35;100.00;62343.78;5016245;28;20199;-79
2023/03/03 03:41:00;;;;;;;7.20;6.45;;;;;;;3.25;100.00;62329.00;5025943;28;20206;-79
2023/03/03 03:43:27;;;;;;;7.22;6.50;;;;;;;3.15;100.00;62323.22;5024246;28;20203;-82
2023/03/03 03:45:54;;;;;;;9.02;6.68;;;;;;;3.15;100.00;62318.19;5026607;28;20198;-79
2023/03/03 03:48:21;;;;;;;11.23;7.15;;;;;;;3.18;100.00;62324.31;5026925;28;20461;-78
2023/03/03 03:50:49;;;;;;;7.68;6.85;;;;;;;3.11;100.00;62319.09;5024831;28;20198;-78
2023/03/03 03:53:18;;;;;;;9.70;6.90;;;;;;;3.12;100.00;62320.66;5025831;28;20198;-78
2023/03/03 03:55:46;;;;;;;9.30;6.95;;;;;;;3.05;100.00;62308.44;5026342;28;20199;-78
2023/03/03 03:58:13;;;;;;;10.55;7.55;;;;;;;2.96;100.00;62301.19;5024499;28;20226;-79
2023/03/03 04:00:41;;;;;;;9.85;6.57;;;;;;;2.99;100.00;62307.28;5022232;28;20221;-79
2023/03/03 04:03:09;;;;;;;10.07;8.20;;;;;;;3.01;100.00;62306.31;5026391;28;20242;-78
2023/03/03 04:05:37;;;;;;;12.45;8.95;;;;;;;2.94;100.00;62294.63;5027783;28;20260;-78
2023/03/03 04:08:04;;;;;;;12.52;9.30;;;;;;;2.83;100.00;62290.84;5019229;28;20234;-79
2023/03/03 04:10:32;;;;;;;12.10;8.15;;;;;;;2.89;100.00;62299.53;5027784;28;20253;-78
2023/03/03 04:12:59;;;;;;;9.45;7.57;;;;;;;2.80;100.00;62287.78;5028570;28;20214;-78
2023/03/03 04:15:26;;;;;;;10.35;8.02;;;;;;;2.78;100.00;62280.69;5026223;28;20206;-77
2023/03/03 04:17:53;;;;;;;9.38;6.70;;;;;;;2.72;100.00;62277.03;5027344;28;20227;-78
2023/03/03 04:20:20;;;;;;;10.32;7.60;;;;;;;2.80;100.00;62285.25;5029050;28;20202;-77
2023/03/03 04:22:47;;;;;;;13.27;8.10;;;;;;;2.85;100.00;62290.41;5028288;28;20285;-77
2023/03/03 04:25:16;;;;;;;8.50;6.95;;;;;;;2.99;100.00;62304.78;5028062;28;20202;-78
2023/03/03 04:27:45;;;;;;;9.68;7.28;;;;;;;3.02;100.00;62309.88;5027628;28;20238;-76
2023/03/03 04:30:14;;;;;;;9.98;6.05;;;;;;;2.92;100.00;62297.06;5028817;28;20210;-78
2023/03/03 04:32:42;;;;;;;10.82;6.38;;;;;;;2.82;100.00;62292.34;5025173;28;20215;-78
2023/03/03 04:35:10;;;;;;;8.85;6.05;;;;;;;2.90;100.00;62290.00;5026279;28;20211;-78
2023/03/03 04:37:38;;;;;;;7.53;5.75;;;;;;;2.78;100.00;62277.66;5030875;28;20248;-79
2023/03/03 04:40:07;;;;;;;6.38;5.65;;;;;;;2.72;100.00;62274.00;5031140;28;20199;-79
2023/03/03 04:42:34;;;;;;;7.20;5.20;;;;;;;2.84;100.00;62291.88;5020045;28;20234;-80
2023/03/03 04:45:03;;;;;;;5.80;5.22;;;;;;;2.74;100.00;62278.59;5030465;28;20395;-81
2023/03/03 04:47:29;;;;;;;6.18;5.13;;;;;;;2.84;100.00;62291.38;5031464;28;20265;-79
2023/03/03 04:49:56;;;;;;;7.05;5.35;;;;;;;2.86;100.00;62291.44;5031299;28;20428;-79
2023/03/03 04:52:23;;;;;;;6.50;5.70;;;;;;;3.07;100.00;62313.00;5029409;28;20230;-81
2023/03/03 04:54:50;;;;;;;7.18;5.50;;;;;;;3.04;100.00;62312.44;5031637;28;20199;-81
2023/03/03 04:57:17;;;;;;;6.32;5.72;;;;;;;3.18;100.00;62323.78;5029502;28;20310;-80
2023/03/03 04:59:45;;;;;;;5.40;5.00;;;;;;;3.06;100.00;62317.00;5025354;28;20508;-78
2023/03/03 05:02:13;;;;;;;6.85;5.28;;;;;;;2.92;100.00;62297.06;5028314;28;20218;-81
2023/03/03 05:04:43;;;;;;;4.93;4.43;;;;;;;3.00;100.00;62307.81;5030167;28;20538;-79
2023/03/03 05:07:09;;;;;;;4.75;4.32;;;;;;;3.06;100.00;62314.50;5027985;28;20257;-78
2023/03/03 05:09:37;;;;;;;3.50;3.13;;;;;;;2.93;100.00;62303.13;5017091;28;20374;-80
2023/03/03 05:12:04;;;;;;;3.88;3.60;;;;;;;2.98;100.00;62303.25;5027258;28;20253;-78
2023/03/03 05:14:31;;;;;;;3.15;2.90;;;;;;;2.97;100.00;62300.22;5028797;28;20210;-81
2023/03/03 05:16:58;;;;;;;4.60;4.15;;;;;;;3.07;100.00;62315.50;5028195;28;20230;-83
2023/03/03 05:19:27;;;;;;;9.73;6.30;;;;;;;3.04;100.00;62304.38;5017006;28;20210;-81
2023/03/03 05:21:54;;;;;;;24.85;14.40;;;;;;;3.09;100.00;62317.56;5011000;28;20219;-80
2023/03/03 05:24:21;;;;;;;35.92;20.80;;;;;;;3.06;100.00;62311.97;5010872;28;20258;-81
2023/03/03 05:26:47;;;;;;;24.38;16.17;;;;;;;3.11;100.00;62317.13;5026769;28;20218;-82
2023/03/03 05:29:14;;;;;;;12.70;8.07;;;;;;;3.22;100.00;62330.44;5009919;28;20211;-81
2023/03/03 05:31:41;;;;;;;6.28;5.68;;;;;;;3.18;100.00;62323.78;5021055;28;20297;-82
2023/03/03 05:34:08;;;;;;;5.13;4.63;;;;;;;3.47;100.00;62356.63;5012273;28;20195;-81
2023/03/03 05:36:37;;;;;;;5.07;4.57;;;;;;;3.48;100.00;62354.63;5012746;28;20424;-80
2023/03/03 05:39:04;;;;;;;4.68;4.28;;;;;;;3.46;100.00;62353.09;5009725;28;20201;-82
2023/03/03 05:41:31;;;;;;;5.03;4.30;;;;;;;3.36;100.00;62342.81;5029921;28;20218;-80
2023/03/03 05:43:57;;;;;;;7.68;5.90;;;;;;;3.58;100.00;62359.38;5028010;28;20211;-80
2023/03/03 05:46:24;;;;;;;4.35;3.97;;;;;;;3.78;100.00;62382.47;5028175;28;20269;-81
2023/03/03 05:48:51;;;;;;;4.47;4.07;;;;;;;3.82;100.00;62384.56;5028687;28;20330;-81
2023/03/03 05:51:18;;;;;;;29.98;27.52;;;;;;;3.89;100.00;62396.28;5030987;28;20222;-82
2023/03/03 05:53:47;;;;;;;4.63;4.22;;;;;;;4.11;100.00;62421.44;5023156;28;20203;-80
2023/03/03 05:56:15;;;;;;;5.38;3.78;;;;;;;4.08;100.00;62415.81;5023702;28;20226;-83
2023/03/03 05:58:42;;;;;;;178.60;113.97;;;;;;;4.22;100.00;62430.22;5029351;28;20207;-80
2023/03/03 06:01:09;;;;;;;4.57;4.18;;;;;;;4.30;100.00;62438.97;5027969;28;20301;-80
2023/03/03 06:03:36;;;;;;;4.88;4.28;;;;;;;4.49;100.00;62460.53;5026073;28;20265;-83
2023/03/03 06:06:03;;;;;;;4.40;4.00;;;;;;;4.58;100.00;62472.84;5030517;28;20195;-84
2023/03/03 06:08:31;;;;;;;5.45;4.93;;;;;;;4.57;100.00;62469.28;5027934;28;20277;-82
2023/03/03 06:11:00;;;;;;;5.05;4.55;;;;;;;4.51;100.00;62463.13;5026207;28;20214;-81
2023/03/03 06:13:27;;;;;;;5.25;4.85;;;;;;;4.36;100.00;62444.66;5027442;28;20225;-81
2023/03/03 06:15:54;;;;;;;7.55;4.75;;;;;;;4.39;100.00;62450.25;5025185;28;20202;-81
2023/03/03 06:18:21;;;;;;;204.45;69.18;;;;;;;4.43;100.00;62456.88;5029598;28;20230;-81
2023/03/03 06:20:51;;;;;;;4.68;4.35;;;;;;;4.40;100.00;62446.75;5031281;28;20223;-81
2023/03/03 06:23:19;;;;;;;175.40;50.42;;;;;;;4.43;100.00;62454.38;5029078;28;20310;-83
2023/03/03 06:25:46;;;;;;;9.00;6.88;;;;;;;4.59;100.00;62468.81;5018761;28;20226;-82
2023/03/03 06:28:15;;;;;;;13.18;9.50;;;;;;;4.50;100.00;62459.56;5028984;28;20230;-82
2023/03/03 06:30:42;;;;;;;20.83;13.07;;;;;;;4.53;100.00;62462.13;5025745;28;20211;-82
2023/03/03 06:33:10;;;;;;;9.60;6.85;;;;;;;4.46;100.00;62460.50;5032713;28;20252;-81
2023/03/03 06:35:37;;;;;;;8.13;7.05;;;;;;;4.21;100.00;62432.22;5029675;28;20264;-79
2023/03/03 06:38:04;;;;;;;9.15;7.63;;;;;;;4.29;100.00;62442.47;5029022;28;20511;-81
2023/03/03 06:40:31;;;;;;;10.60;7.95;;;;;;;4.14;100.00;62422.50;5031985;28;20195;-81
2023/03/03 06:42:58;;;;;;;11.82;8.82;;;;;;;4.14;100.00;62427.06;5030052;28;20222;-80
2023/03/03 06:45:26;;;;;;;11.32;8.48;;;;;;;4.35;100.00;62444.13;5027703;28;20209;-81
2023/03/03 06:47:54;;;;;;;10.18;7.93;;;;;;;4.67;100.00;62476.56;5028690;28;20246;-81
2023/03/03 06:50:21;;;;;;;8.98;7.00;;;;;;;4.70;100.00;62479.63;5022589;28;20228;-81
2023/03/03 06:52:48;;;;;;;10.23;7.15;;;;;;;4.88;100.00;62497.66;5026788;28;20218;-82
2023/03/03 06:55:22;;;;;;;6.70;6.07;;;;;;;5.02;100.00;62512.06;5028241;28;20194;-80
2023/03/03 06:57:49;;;;;;;8.88;6.85;;;;;;;5.16;100.00;62529.00;5024780;28;20265;-80
2023/03/03 07:00:18;;;;;;;1999.90;999.90;;;;;;;5.11;100.00;62519.31;5028169;28;20212;-82
2023/03/03 07:02:47;;;;;;;6.53;5.43;;;;;;;5.36;100.00;62547.59;5029714;28;20245;-80
2023/03/03 07:05:17;;;;;;;5.30;4.90;;;;;;;5.33;100.00;62544.00;5030512;28;20210;-81
2023/03/03 07:07:45;;;;;;;6.63;6.00;;;;;;;5.29;100.00;62539.88;5027384;28;20533;-82
2023/03/03 07:10:22;;;;;;;10.57;7.10;;;;;;;5.34;100.00;62545.00;5030556;28;20301;-81
2023/03/03 07:12:49;;;;;;;11.55;8.35;;;;;;;5.39;100.00;62547.63;5031457;28;20233;-81
2023/03/03 07:15:19;;;;;;;10.55;9.10;;;;;;;5.31;100.00;62544.47;5025917;28;20378;-82
2023/03/03 07:17:49;;;;;;;9.13;7.63;;;;;;;5.17;100.00;62525.50;5029974;28;20219;-82
2023/03/03 07:20:20;;;;;;;8.52;6.93;;;;;;;5.20;100.00;62531.13;5030041;28;20202;-82
2023/03/03 07:22:47;;;;;;;10.43;7.35;;;;;;;5.33;100.00;62549.03;5023174;28;20215;-81
2023/03/03 07:25:23;;;;;;;8.55;7.05;;;;;;;5.37;100.00;62545.56;5029583;28;20211;-80
2023/03/03 07:27:51;;;;;;;8.68;7.65;;;;;;;5.07;100.00;62515.22;5029904;28;20253;-79
2023/03/03 07:30:24;;;;;;;10.10;6.88;;;;;;;5.05;100.00;62515.69;5030172;28;20213;-80
2023/03/03 07:32:55;;;;;;;9.30;8.18;;;;;;;5.05;100.00;62520.72;5026673;28;20218;-81
2023/03/03 07:35:40;;;;;;;9.98;8.30;;;;;;;5.25;100.00;62536.25;5030023;28;20229;-81
2023/03/03 07:38:28;;;;;;;9.73;7.82;;;;;;;5.45;100.00;62556.34;5029565;28;20226;-80
2023/03/03 07:40:58;;;;;;;10.23;7.72;;;;;;;5.22;100.00;62535.69;5026179;28;20195;-80
2023/03/03 07:43:39;;;;;;;10.10;8.05;;;;;;;5.47;100.00;62553.88;5028196;28;20241;-81
2023/03/03 07:46:26;;;;;;;11.07;8.77;;;;;;;5.54;100.00;62568.66;5032068;28;20226;-81
2023/03/03 07:48:55;;;;;;;9.38;8.35;;;;;;;5.50;100.00;62561.50;5028076;28;20415;-82
2023/03/03 07:51:26;;;;;;;10.88;8.43;;;;;;;5.31;100.00;62544.47;5030941;28;20576;-82
2023/03/03 07:53:54;;;;;;;10.63;7.90;;;;;;;5.51;100.00;62562.53;5033299;28;20253;-81
2023/03/03 07:56:30;;;;;;;8.20;7.35;;;;;;;5.19;100.00;62530.09;5036771;28;20241;-82
2023/03/03 07:58:58;;;;;;;10.88;8.50;;;;;;;5.37;100.00;62546.09;5024286;28;20198;-83
2023/03/03 08:01:43;;;;;;;9.13;7.60;;;;;;;5.28;100.00;62539.34;5034793;28;20219;-83
2023/03/03 08:04:19;;;;;;;11.73;7.93;;;;;;;5.28;100.00;62544.41;5030910;28;20225;-81
2023/03/03 08:06:55;;;;;;;17.30;7.97;;;;;;;5.08;100.00;62518.75;5028514;28;20234;-80
2023/03/03 08:09:38;;;;;;;9.50;6.88;;;;;;;4.96;100.00;62508.41;5023010;28;20276;-81
2023/03/03 08:12:34;;;;;;;11.27;7.25;;;;;;;4.95;100.00;62507.91;5032343;28;20242;-82
2023/03/03 08:15:17;;;;;;;7.55;6.60;;;;;;;4.67;100.00;62477.06;5031899;28;20207;-80
2023/03/03 08:17:44;;;;;;;6.90;6.20;;;;;;;4.81;100.00;62490.97;5026777;28;20425;-83
2023/03/03 08:20:43;;;;;;;8.57;7.00;;;;;;;4.70;100.00;62482.66;5030323;28;20245;-82
2023/03/03 08:23:10;;;;;;;7.43;6.18;;;;;;;4.78;100.00;62487.84;5025936;28;20242;-83
2023/03/03 08:25:37;;;;;;;7.53;6.50;;;;;;;4.85;100.00;62497.09;5033229;28;20199;-82
2023/03/03 08:28:04;;;;;;;12.82;7.78;;;;;;;5.06;100.00;62518.69;5033405;28;20242;-83
2023/03/03 08:30:31;;;;;;;6.82;6.22;;;;;;;5.18;100.00;62528.53;5033927;28;20229;-83
2023/03/03 08:32:58;;;;;;;7.20;5.60;;;;;;;5.25;100.00;62538.25;5033248;28;20227;-83
2023/03/03 08:35:25;;;;;;;6.97;6.32;;;;;;;5.09;100.00;62519.28;5028093;28;20203;-81
2023/03/03 08:37:54;;;;;;;7.45;6.38;;;;;;;5.04;100.00;62514.13;5032873;28;20222;-81
2023/03/03 08:40:21;;;;;;;9.23;7.70;;;;;;;5.15;100.00;62523.44;5032703;28;20206;-81
2023/03/03 08:42:48;;;;;;;8.65;7.30;;;;;;;5.46;100.00;62562.94;5030196;28;20234;-82
2023/03/03 08:45:15;;;;;;;9.38;8.32;;;;;;;5.33;100.00;62552.06;5033948;28;20206;-83
2023/03/03 08:47:43;;;;;;;12.35;8.10;;;;;;;5.38;100.00;62547.13;5031978;28;20241;-82
2023/03/03 08:50:11;;;;;;;11.63;8.70;;;;;;;5.39;100.00;62555.22;5031154;28;20218;-82
2023/03/03 08:52:41;;;;;;;10.93;7.72;;;;;;;5.35;100.00;62543.53;5031839;28;20461;-81
2023/03/03 08:55:10;;;;;;;9.25;8.27;;;;;;;5.41;100.00;62555.28;5032420;28;20198;-82
2023/03/03 08:57:37;;;;;;;11.32;8.35;;;;;;;5.55;100.00;62572.22;5034757;28;20214;-80
2023/03/03 09:00:06;;;;;;;13.05;9.18;;;;;;;5.38;100.00;62551.66;5034056;28;20256;-80
2023/03/03 09:02:33;;;;;;;369.85;262.42;;;;;;;5.46;100.00;62559.91;5030800;28;20222;-82
2023/03/03 09:05:00;;;;;;;16.90;14.90;;;;;;;5.59;100.00;62570.78;5031826;28;20241;-81
2023/03/03 09:07:27;;;;;;;13.00;9.25;;;;;;;5.59;100.00;62573.31;5031508;28;20231;-83
2023/03/03 09:09:54;;;;;;;12.63;9.63;;;;;;;5.64;100.00;62573.91;5032159;28;20222;-84
2023/03/03 09:12:29;;;;;;;11.73;8.75;;;;;;;5.70;100.00;62585.16;5032362;28;20551;-82
2023/03/03 09:14:58;;;;;;;9.60;8.60;;;;;;;5.45;100.00;62559.38;5032189;28;20202;-81
2023/03/03 09:17:30;;;;;;;11.48;9.13;;;;;;;5.42;100.00;62555.78;5029937;28;20222;-81
2023/03/03 09:20:02;;;;;;;15.77;9.93;;;;;;;5.41;100.00;62552.75;5030780;28;20206;-82
2023/03/03 09:22:29;;;;;;;14.07;9.88;;;;;;;5.61;100.00;62577.88;5021467;28;20339;-82
2023/03/03 09:24:59;;;;;;;13.93;9.95;;;;;;;5.52;100.00;62564.06;5028358;28;20202;-81
2023/03/03 09:27:30;;;;;;;12.38;9.30;;;;;;;5.47;100.00;62558.91;5031754;28;20227;-82
2023/03/03 09:30:02;;;;;;;12.02;10.38;;;;;;;5.33;100.00;62539.44;5032350;28;20240;-81
2023/03/03 09:32:34;;;;;;;9.35;8.32;;;;;;;5.05;100.00;62520.72;5029649;28;20222;-82
2023/03/03 09:35:40;;;;;;;15.55;10.05;;;;;;;4.90;100.00;62499.72;5031150;28;20221;-83
2023/03/03 09:38:21;;;;;;;15.90;9.45;;;;;;;4.94;100.00;62506.34;5030120;28;20228;-81
2023/03/03 09:41:09;;;;;;;15.20;9.65;;;;;;;5.01;100.00;62511.03;5013975;28;20226;-82
2023/03/03 09:43:45;;;;;;;13.10;9.60;;;;;;;4.98;100.00;62505.94;5013539;28;20215;-80
2023/03/03 09:46:20;;;;;;;13.65;9.25;;;;;;;5.11;100.00;62521.34;5030996;28;20242;-83
2023/03/03 09:48:56;;;;;;;13.77;9.57;;;;;;;5.19;100.00;62527.06;5030234;28;20222;-84
2023/03/03 09:51:40;;;;;;;12.98;9.82;;;;;;;4.99;100.00;62508.97;5027232;28;20226;-82
2023/03/03 09:54:26;;;;;;;14.30;10.60;;;;;;;5.00;100.00;62510.00;5031001;28;20210;-83
2023/03/03 09:57:04;;;;;;;12.70;9.77;;;;;;;5.28;100.00;62536.81;5029635;28;20570;-83
2023/03/03 09:59:45;;;;;;;15.82;10.07;;;;;;;5.24;100.00;62537.25;5024797;28;20203;-80
2023/03/03 10:02:35;;;;;;;16.08;9.40;;;;;;;5.18;100.00;62529.06;5029648;28;20256;-82
2023/03/03 10:05:14;;;;;;;14.52;11.05;;;;;;;5.07;100.00;62519.75;5029657;28;20226;-81
2023/03/03 10:07:53;;;;;;;14.65;11.07;;;;;;;4.97;100.00;62507.41;5010352;28;20497;-80
2023/03/03 10:10:29;;;;;;;15.07;10.43;;;;;;;4.93;100.00;62505.84;5029622;28;20210;-81
2023/03/03 10:13:08;;;;;;;16.25;10.13;;;;;;;5.15;100.00;62527.97;5032051;28;20214;-80
2023/03/03 10:15:53;;;;;;;15.93;10.95;;;;;;;5.40;100.00;62551.72;5028415;28;20225;-81
2023/03/03 10:18:32;;;;;;;19.02;12.15;;;;;;;5.51;100.00;62562.53;5022254;28;20303;-84
2023/03/03 10:21:05;;;;;;;16.75;11.40;;;;;;;5.53;100.00;62567.63;5029526;28;20244;-81
2023/03/03 10:23:53;;;;;;;16.88;10.73;;;;;;;5.61;100.00;62575.88;5027344;28;20358;-82
2023/03/03 10:26:37;;;;;;;16.75;11.38;;;;;;;5.55;100.00;62569.19;5024880;28;20222;-82
2023/03/03 10:29:25;;;;;;;13.50;10.07;;;;;;;5.22;100.00;62535.69;5031733;28;20237;-83
2023/03/03 10:32:22;;;;;;;15.43;10.98;;;;;;;5.15;100.00;62525.97;5031640;28;20219;-82
2023/03/03 10:35:03;;;;;;;16.42;12.02;;;;;;;5.24;100.00;62535.25;5020448;28;20253;-83
2023/03/03 10:37:49;;;;;;;18.65;12.35;;;;;;;5.46;100.00;62559.91;5028810;28;20218;-80
2023/03/03 10:40:27;;;;;;;13.38;11.80;;;;;;;5.93;100.00;62610.38;5023871;28;20246;-82
2023/03/03 10:43:29;;;;;;;14.45;10.70;;;;;;;6.06;100.00;62621.25;5032021;28;20228;-82
2023/03/03 10:46:15;;;;;;;13.68;11.07;;;;;;;6.03;100.00;62618.13;5013738;28;20198;-81
2023/03/03 10:49:07;;;;;;;10.88;9.40;;;;;;;6.25;100.00;62640.81;5023394;28;20218;-83
2023/03/03 10:51:46;;;;;;;13.07;9.73;;;;;;;6.16;100.00;62631.56;5019004;28;20227;-83
2023/03/03 10:54:29;;;;;;;14.43;10.90;;;;;;;5.81;100.00;62599.03;5029659;28;20202;-82
2023/03/03 10:57:03;;;;;;;11.27;10.07;;;;;;;5.75;100.00;62590.31;5030397;28;20295;-82
2023/03/03 10:59:41;;;;;;;13.40;10.15;;;;;;;5.90;100.00;62600.22;5030206;28;20218;-82
2023/03/03 11:02:18;;;;;;;16.92;10.85;;;;;;;5.97;100.00;62611.97;5029120;28;20226;-83
2023/03/03 11:05:11;;;;;;;13.90;10.75;;;;;;;6.17;100.00;62630.03;5021289;28;20238;-82
2023/03/03 11:07:43;;;;;;;14.88;10.68;;;;;;;6.23;100.00;62636.25;5011754;28;20231;-83
2023/03/03 11:10:33;;;;;;;13.80;10.95;;;;;;;6.26;100.00;62641.84;5024931;28;20233;-83
2023/03/03 11:13:12;;;;;;;12.75;10.48;;;;;;;6.38;100.00;62654.75;5012042;28;20233;-84
2023/03/03 11:15:52;;;;;;;16.60;12.05;;;;;;;6.45;100.00;62661.44;5030251;28;20199;-83
2023/03/03 11:18:31;;;;;;;15.07;9.82;;;;;;;6.03;100.00;62615.59;5021061;28;20231;-83
2023/03/03 11:21:07;;;;;;;13.95;11.05;;;;;;;5.68;100.00;62582.56;5013984;28;20202;-83
2023/03/03 11:23:55;;;;;;;12.68;10.95;;;;;;;5.95;100.00;62607.91;5027773;28;20202;-85
2023/03/03 11:26:44;;;;;;;15.32;10.80;;;;;;;5.88;100.00;62600.69;5015076;28;20226;-84
2023/03/03 11:29:26;;;;;;;17.83;11.77;;;;;;;6.05;100.00;62617.69;5004602;28;20299;-83
2023/03/03 11:31:57;;;;;;;15.10;11.80;;;;;;;6.13;100.00;62625.91;5020920;28;20210;-84
2023/03/03 11:34:46;;;;;;;15.80;12.27;;;;;;;6.11;100.00;62626.41;5030844;28;20223;-83
2023/03/03 11:37:22;;;;;;;13.02;10.88;;;;;;;5.94;100.00;62606.34;5029522;28;20553;-84
2023/03/03 11:39:51;;;;;;;22.15;13.60;;;;;;;5.70;100.00;62585.16;5036000;28;20205;-82
2023/03/03 11:42:26;;;;;;;16.98;12.15;;;;;;;5.83;100.00;62595.53;5034039;28;20282;-80
2023/03/03 11:44:56;;;;;;;18.33;12.52;;;;;;;5.94;100.00;62603.81;5029929;28;20212;-83
2023/03/03 11:47:28;;;;;;;18.60;13.32;;;;;;;6.05;100.00;62618.19;5031463;28;20396;-82
2023/03/03 11:50:00;;;;;;;16.23;12.63;;;;;;;6.15;100.00;62625.97;5036152;28;20273;-82